createdAt,value
2018-02-04T00:01:26.773Z,11.93
2018-02-04T00:03:53.167Z,12.13
2018-02-04T00:06:19.550Z,11.60
2018-02-04T00:08:45.911Z,12.17
2018-02-04T00:11:12.286Z,12.00
2018-02-04T00:13:39.429Z,11.60
2018-02-04T00:16:05.834Z,12.70
2018-02-04T00:18:32.233Z,12.83
2018-02-04T00:20:58.661Z,13.40
2018-02-04T00:23:25.038Z,12.10
2018-02-04T00:25:51.443Z,12.40
2018-02-04T00:28:17.840Z,12.93
2018-02-04T00:30:44.244Z,14.80
2018-02-04T00:33:10.633Z,13.30
2018-02-04T00:35:37.002Z,13.20
2018-02-04T00:38:03.446Z,12.27
2018-02-04T00:40:30.650Z,11.30
2018-02-04T00:42:57.023Z,12.10
2018-02-04T00:45:23.406Z,12.97
2018-02-04T00:47:49.833Z,12.03
2018-02-04T00:50:16.225Z,12.80
2018-02-04T00:52:43.437Z,13.80
2018-02-04T00:55:09.833Z,11.80
2018-02-04T00:57:36.954Z,13.07
2018-02-04T01:00:03.585Z,12.23
2018-02-04T01:02:29.990Z,14.53
2018-02-04T01:04:56.386Z,12.13
2018-02-04T01:07:22.764Z,12.47
2018-02-04T01:09:49.157Z,13.00
2018-02-04T01:12:15.541Z,11.83
2018-02-04T01:14:41.909Z,13.57
2018-02-04T01:17:09.039Z,12.00
2018-02-04T01:19:36.198Z,13.60
2018-02-04T01:22:03.326Z,14.30
2018-02-04T01:24:29.709Z,13.57
2018-02-04T01:26:56.086Z,13.10
2018-02-04T01:29:23.942Z,11.50
2018-02-04T01:31:50.328Z,12.10
2018-02-04T01:34:17.566Z,12.73
2018-02-04T01:36:44.747Z,11.80
2018-02-04T01:39:11.165Z,10.97
2018-02-04T01:41:37.551Z,12.07
2018-02-04T01:44:03.968Z,11.70
2018-02-04T01:46:30.416Z,10.87
2018-02-04T01:48:56.811Z,11.63
2018-02-04T01:51:23.213Z,11.90
2018-02-04T01:53:49.646Z,11.90
2018-02-04T01:56:16.029Z,12.17
2018-02-04T01:58:42.408Z,12.10
2018-02-04T02:01:08.785Z,11.30
2018-02-04T02:03:35.160Z,11.83
2018-02-04T02:06:02.265Z,12.70
2018-02-04T02:08:28.659Z,12.13
2018-02-04T02:10:55.050Z,12.03
2018-02-04T02:13:21.438Z,11.67
2018-02-04T02:15:47.829Z,12.77
2018-02-04T02:18:14.938Z,12.40
2018-02-04T02:20:41.327Z,13.20
2018-02-04T02:23:08.445Z,12.03
2018-02-04T02:25:35.578Z,12.27
2018-02-04T02:28:01.987Z,11.47
2018-02-04T02:30:28.369Z,11.27
2018-02-04T02:32:54.789Z,11.47
2018-02-04T02:35:21.164Z,12.57
2018-02-04T02:37:47.552Z,12.67
2018-02-04T02:40:15.461Z,13.00
2018-02-04T02:42:41.875Z,12.30
2018-02-04T02:45:08.996Z,12.77
2018-02-04T02:47:35.380Z,11.97
2018-02-04T02:50:01.772Z,13.03
2018-02-04T02:52:28.182Z,12.87
2018-02-04T02:54:54.534Z,12.17
2018-02-04T02:57:20.906Z,13.10
2018-02-04T02:59:47.309Z,12.60
2018-02-04T03:02:14.813Z,13.07
2018-02-04T03:04:41.248Z,13.27
2018-02-04T03:07:07.631Z,12.90
2018-02-04T03:09:34.760Z,12.50
2018-02-04T03:12:01.146Z,12.87
2018-02-04T03:14:27.542Z,11.77
2018-02-04T03:16:54.671Z,12.97
2018-02-04T03:19:21.075Z,12.23
2018-02-04T03:21:47.530Z,11.63
2018-02-04T03:24:13.968Z,11.03
2018-02-04T03:26:41.852Z,11.57
2018-02-04T03:29:08.219Z,11.40
2018-02-04T03:31:34.586Z,10.83
2018-02-04T03:34:00.945Z,10.90
2018-02-04T03:36:27.297Z,10.10
2018-02-04T03:38:54.418Z,10.77
2018-02-04T03:41:20.799Z,10.07
2018-02-04T03:43:47.166Z,10.60
2018-02-04T03:46:13.549Z,10.57
2018-02-04T03:48:39.919Z,12.37
2018-02-04T03:51:06.363Z,10.57
2018-02-04T03:53:32.791Z,10.70
2018-02-04T03:55:59.199Z,11.73
2018-02-04T03:58:25.585Z,11.30
2018-02-04T04:00:52.700Z,10.87
2018-02-04T04:03:19.106Z,11.20
2018-02-04T04:05:45.468Z,12.90
2018-02-04T04:08:11.978Z,10.83
2018-02-04T04:10:38.413Z,11.30
2018-02-04T04:13:04.801Z,11.50
2018-02-04T04:15:31.913Z,11.40
2018-02-04T04:17:59.085Z,11.60
2018-02-04T04:20:25.472Z,11.13
2018-02-04T04:22:51.845Z,11.17
2018-02-04T04:25:18.282Z,12.33
2018-02-04T04:27:45.403Z,11.60
2018-02-04T04:30:11.789Z,10.77
2018-02-04T04:32:38.158Z,10.60
2018-02-04T04:35:04.544Z,9.97
2018-02-04T04:37:31.670Z,10.10
2018-02-04T04:39:58.057Z,8.83
2018-02-04T04:42:24.443Z,7.93
2018-02-04T04:44:51.558Z,8.10
2018-02-04T04:47:17.950Z,7.17
2018-02-04T04:49:44.339Z,7.50
2018-02-04T04:52:10.779Z,7.57
2018-02-04T04:54:37.198Z,6.97
2018-02-04T04:57:03.647Z,7.60
2018-02-04T04:59:30.048Z,6.90
2018-02-04T05:01:56.423Z,7.10
2018-02-04T05:04:23.533Z,6.80
2018-02-04T05:06:49.926Z,6.47
2018-02-04T05:09:16.399Z,6.10
2018-02-04T05:11:42.809Z,6.43
2018-02-04T05:14:09.171Z,6.23
2018-02-04T05:16:35.552Z,5.97
2018-02-04T05:19:01.934Z,6.00
2018-02-04T05:21:28.306Z,5.60
2018-02-04T05:23:55.440Z,6.80
2018-02-04T05:26:22.599Z,6.77
2018-02-04T05:28:49.734Z,6.77
2018-02-04T05:31:16.154Z,5.37
2018-02-04T05:33:42.551Z,5.17
2018-02-04T05:36:08.936Z,5.70
2018-02-04T05:38:36.071Z,6.30
2018-02-04T05:41:02.438Z,5.80
2018-02-04T05:43:29.548Z,6.30
2018-02-04T05:45:55.944Z,6.43
2018-02-04T05:48:22.365Z,6.10
2018-02-04T05:50:48.858Z,6.30
2018-02-04T05:53:15.222Z,7.03
2018-02-04T05:55:41.599Z,7.47
2018-02-04T05:58:08.086Z,7.20
2018-02-04T06:00:34.563Z,7.13
2018-02-04T06:03:00.928Z,7.13
2018-02-04T06:05:28.054Z,6.57
2018-02-04T06:07:54.446Z,6.50
2018-02-04T06:10:20.891Z,6.83
2018-02-04T06:12:47.296Z,7.07
2018-02-04T06:15:13.714Z,6.50
2018-02-04T06:17:40.830Z,6.80
2018-02-04T06:20:07.230Z,7.22
2018-02-04T06:22:33.654Z,8.70
2018-02-04T06:25:00.098Z,6.97
2018-02-04T06:27:26.526Z,7.80
2018-02-04T06:29:52.941Z,6.47
2018-02-04T06:32:19.369Z,6.93
2018-02-04T06:34:45.791Z,7.77
2018-02-04T06:37:12.916Z,7.90
2018-02-04T06:39:39.285Z,6.93
2018-02-04T06:42:05.714Z,7.27
2018-02-04T06:44:32.107Z,7.32
2018-02-04T06:46:58.516Z,7.80
2018-02-04T06:49:24.907Z,8.00
2018-02-04T06:51:52.034Z,6.60
2018-02-04T06:54:19.210Z,7.33
2018-02-04T06:56:45.656Z,8.23
2018-02-04T06:59:12.046Z,7.27
2018-02-04T07:01:39.909Z,7.27
2018-02-04T07:04:06.314Z,8.00
2018-02-04T07:06:32.704Z,8.83
2018-02-04T07:08:59.849Z,9.00
2018-02-04T07:11:26.302Z,7.80
2018-02-04T07:13:52.693Z,8.37
2018-02-04T07:16:19.064Z,7.30
2018-02-04T07:18:45.477Z,7.10
2018-02-04T07:21:12.604Z,8.23
2018-02-04T07:23:39.017Z,8.43
2018-02-04T07:26:05.499Z,8.13
2018-02-04T07:28:31.895Z,7.37
2018-02-04T07:30:58.334Z,8.50
2018-02-04T07:33:25.448Z,8.27
2018-02-04T07:35:51.825Z,9.37
2018-02-04T07:38:18.933Z,9.33
2018-02-04T07:40:45.461Z,9.53
2018-02-04T07:43:11.863Z,9.30
2018-02-04T07:45:38.236Z,8.80
2018-02-04T07:48:04.649Z,8.87
2018-02-04T07:50:31.055Z,9.60
2018-02-04T07:52:57.458Z,8.93
2018-02-04T07:55:23.849Z,9.33
2018-02-04T07:57:50.288Z,9.20
2018-02-04T08:00:16.680Z,10.13
2018-02-04T08:02:43.814Z,10.17
2018-02-04T08:05:10.981Z,10.20
2018-02-04T08:07:37.952Z,10.40
2018-02-04T08:10:04.331Z,9.97
2018-02-04T08:12:30.706Z,9.00
2018-02-04T08:14:57.120Z,9.83
2018-02-04T08:17:23.540Z,11.03
2018-02-04T08:19:50.721Z,10.23
2018-02-04T08:22:17.087Z,11.27
2018-02-04T08:24:43.470Z,12.70
2018-02-04T08:27:09.898Z,12.57
2018-02-04T08:29:36.296Z,17.60
2018-02-04T08:32:02.690Z,16.47
2018-02-04T08:34:29.070Z,13.83
2018-02-04T08:36:55.464Z,13.23
2018-02-04T08:39:21.849Z,14.17
2018-02-04T08:41:48.964Z,14.43
2018-02-04T08:44:15.409Z,14.70
2018-02-04T08:46:41.841Z,15.03
2018-02-04T08:49:08.166Z,13.50
2018-02-04T08:51:34.565Z,14.97
2018-02-04T08:54:01.012Z,16.60
2018-02-04T08:56:27.409Z,13.60
2018-02-04T08:58:53.801Z,12.77
2018-02-04T09:01:21.684Z,12.93
2018-02-04T09:03:48.829Z,14.00
2018-02-04T09:06:15.250Z,13.57
2018-02-04T09:08:41.706Z,13.40
2018-02-04T09:11:08.846Z,12.87
2018-02-04T09:13:35.230Z,15.03
2018-02-04T09:16:01.741Z,11.40
2018-02-04T09:18:28.136Z,11.37
2018-02-04T09:20:54.521Z,12.00
2018-02-04T09:23:20.910Z,10.17
2018-02-04T09:25:48.090Z,11.37
2018-02-04T09:28:14.463Z,11.60
2018-02-04T09:30:40.841Z,12.83
2018-02-04T09:33:07.257Z,12.13
2018-02-04T09:35:34.367Z,11.57
2018-02-04T09:38:00.796Z,11.73
2018-02-04T09:40:27.173Z,12.30
2018-02-04T09:42:54.322Z,11.80
2018-02-04T09:45:21.509Z,11.90
2018-02-04T09:47:47.922Z,11.23
2018-02-04T09:50:15.099Z,11.90
2018-02-04T09:52:41.903Z,11.50
2018-02-04T09:55:09.162Z,10.67
2018-02-04T09:57:35.590Z,9.83
2018-02-04T10:00:02.065Z,10.83
2018-02-04T10:02:28.425Z,10.43
2018-02-04T10:04:54.802Z,9.83
2018-02-04T10:07:21.250Z,10.40
2018-02-04T10:09:47.699Z,8.70
2018-02-04T10:12:14.058Z,7.73
2018-02-04T10:14:40.478Z,8.30
2018-02-04T10:17:06.858Z,9.30
2018-02-04T10:19:33.288Z,8.80
2018-02-04T10:21:59.775Z,8.30
2018-02-04T10:24:26.185Z,8.87
2018-02-04T10:26:52.619Z,8.97
2018-02-04T10:29:19.057Z,9.73
2018-02-04T10:31:45.498Z,8.90
2018-02-04T10:34:11.948Z,8.53
2018-02-04T10:36:38.388Z,29.47
2018-02-04T10:39:05.575Z,8.60
2018-02-04T10:41:32.012Z,9.53
2018-02-04T10:43:58.435Z,9.13
2018-02-04T10:46:24.881Z,7.60
2018-02-04T10:48:51.351Z,9.10
2018-02-04T10:51:23.727Z,8.87
2018-02-04T10:53:50.167Z,9.03
2018-02-04T10:56:16.591Z,11.00
2018-02-04T10:58:43.065Z,9.30
2018-02-04T11:01:10.255Z,10.57
2018-02-04T11:03:36.699Z,10.43
2018-02-04T11:06:03.136Z,9.00
2018-02-04T11:08:29.579Z,9.13
2018-02-04T11:10:57.019Z,9.10
2018-02-04T11:13:23.487Z,8.80
2018-02-04T11:15:50.653Z,8.47
2018-02-04T11:18:17.094Z,9.53
2018-02-04T11:20:43.498Z,9.10
2018-02-04T11:23:09.886Z,7.30
2018-02-04T11:25:36.266Z,7.97
2018-02-04T11:28:03.418Z,7.40
2018-02-04T11:30:30.559Z,7.10
2018-02-04T11:32:56.955Z,8.10
2018-02-04T11:35:23.345Z,6.80
2018-02-04T11:37:50.470Z,8.13
2018-02-04T11:40:16.863Z,7.80
2018-02-04T11:42:43.280Z,6.90
2018-02-04T11:45:09.712Z,8.70
2018-02-04T11:47:36.141Z,7.80
2018-02-04T11:50:02.600Z,7.37
2018-02-04T11:52:29.062Z,8.53
2018-02-04T11:54:55.533Z,9.00
2018-02-04T11:57:22.079Z,10.20
2018-02-04T11:59:48.556Z,8.70
2018-02-04T12:02:14.962Z,10.20
2018-02-04T12:04:41.342Z,9.87
2018-02-04T12:07:07.758Z,9.60
2018-02-04T12:09:34.914Z,8.60
2018-02-04T12:12:01.294Z,8.30
2018-02-04T12:14:27.661Z,8.53
2018-02-04T12:16:54.151Z,8.17
2018-02-04T12:19:20.635Z,9.73
2018-02-04T12:21:47.072Z,8.30
2018-02-04T12:24:13.531Z,9.93
2018-02-04T12:26:40.699Z,7.43
2018-02-04T12:29:07.100Z,7.40
2018-02-04T12:31:34.236Z,7.27
2018-02-04T12:34:00.616Z,7.53
2018-02-04T12:36:26.993Z,6.53
2018-02-04T12:38:53.426Z,6.97
2018-02-04T12:41:19.856Z,6.97
2018-02-04T12:43:46.270Z,6.20
2018-02-04T12:46:12.637Z,6.60
2018-02-04T12:48:39.076Z,7.60
2018-02-04T12:51:06.293Z,7.00
2018-02-04T12:53:32.748Z,6.53
2018-02-04T12:55:59.224Z,5.63
2018-02-04T12:58:25.663Z,6.67
2018-02-04T13:00:52.080Z,6.20
2018-02-04T13:03:20.186Z,6.10
2018-02-04T13:05:46.656Z,6.40
2018-02-04T13:08:13.032Z,6.10
2018-02-04T13:10:39.421Z,5.70
2018-02-04T13:13:05.815Z,6.10
2018-02-04T13:15:32.268Z,5.77
2018-02-04T13:17:58.681Z,6.07
2018-02-04T13:20:25.060Z,5.43
2018-02-04T13:22:52.202Z,5.10
2018-02-04T13:25:18.640Z,4.90
2018-02-04T13:27:45.812Z,4.80
2018-02-04T13:30:13.002Z,5.40
2018-02-04T13:32:39.404Z,7.10
2018-02-04T13:35:05.872Z,5.23
2018-02-04T13:37:32.300Z,4.37
2018-02-04T13:39:58.798Z,4.90
2018-02-04T13:42:25.278Z,4.67
2018-02-04T13:44:51.688Z,5.47
2018-02-04T13:47:18.078Z,5.00
2018-02-04T13:49:45.226Z,5.73
2018-02-04T13:52:11.635Z,5.00
2018-02-04T13:54:38.080Z,6.03
2018-02-04T13:57:04.475Z,6.07
2018-02-04T13:59:30.846Z,7.10
2018-02-04T14:01:57.241Z,6.40
2018-02-04T14:04:23.647Z,6.97
2018-02-04T14:06:50.041Z,7.60
2018-02-04T14:09:16.419Z,7.30
2018-02-04T14:11:42.809Z,7.57
2018-02-04T14:14:09.182Z,8.13
2018-02-04T14:16:35.579Z,7.70
2018-02-04T14:19:01.978Z,9.10
2018-02-04T14:21:29.116Z,9.13
2018-02-04T14:23:55.558Z,8.90
2018-02-04T14:26:21.949Z,9.60
2018-02-04T14:28:48.317Z,8.40
2018-02-04T14:31:14.719Z,10.90
2018-02-04T14:33:41.153Z,9.87
2018-02-04T14:36:07.586Z,9.53
2018-02-04T14:38:33.950Z,8.63
2018-02-04T14:41:00.395Z,8.77
2018-02-04T14:43:26.770Z,8.20
2018-02-04T14:45:53.162Z,8.80
2018-02-04T14:48:19.554Z,8.13
2018-02-04T14:50:45.939Z,8.93
2018-02-04T14:53:13.090Z,8.70
2018-02-04T14:55:39.462Z,10.30
2018-02-04T14:58:05.850Z,10.83
2018-02-04T15:00:32.259Z,9.77
2018-02-04T15:02:58.628Z,9.03
2018-02-04T15:05:25.802Z,9.00
2018-02-04T15:07:52.202Z,12.97
2018-02-04T15:10:18.594Z,16.70
2018-02-04T15:12:44.994Z,8.00
2018-02-04T15:15:11.398Z,8.47
2018-02-04T15:17:38.531Z,7.50
2018-02-04T15:20:04.938Z,8.67
2018-02-04T15:22:31.355Z,6.20
2018-02-04T15:24:57.742Z,7.00
2018-02-04T15:27:24.138Z,7.40
2018-02-04T15:29:50.661Z,7.67
2018-02-04T15:32:17.075Z,7.30
2018-02-04T15:34:43.463Z,6.77
2018-02-04T15:37:11.416Z,6.97
2018-02-04T15:39:37.782Z,6.03
2018-02-04T15:42:05.167Z,6.33
2018-02-04T15:44:31.571Z,5.40
2018-02-04T15:46:58.706Z,6.53
2018-02-04T15:49:25.099Z,5.80
2018-02-04T15:51:51.494Z,5.00
2018-02-04T15:54:18.610Z,5.97
2018-02-04T15:56:44.990Z,6.27
2018-02-04T15:59:11.383Z,7.70
2018-02-04T16:01:37.778Z,6.13
2018-02-04T16:04:04.158Z,5.90
2018-02-04T16:06:30.522Z,7.00
2018-02-04T16:08:56.894Z,7.03
2018-02-04T16:11:23.268Z,5.80
2018-02-04T16:13:50.579Z,5.90
2018-02-04T16:16:16.968Z,7.23
2018-02-04T16:18:43.353Z,7.53
2018-02-04T16:21:10.687Z,6.50
2018-02-04T16:23:37.079Z,7.67
2018-02-04T16:26:03.513Z,7.23
2018-02-04T16:28:29.976Z,9.67
2018-02-04T16:30:56.462Z,7.97
2018-02-04T16:33:23.637Z,9.03
2018-02-04T16:35:50.088Z,9.23
2018-02-04T16:38:16.499Z,9.43
2018-02-04T16:40:42.932Z,8.50
2018-02-04T16:43:09.331Z,9.10
2018-02-04T16:45:35.787Z,8.90
2018-02-04T16:48:02.986Z,7.97
2018-02-04T16:50:29.399Z,7.67
2018-02-04T16:52:55.780Z,9.03
2018-02-04T16:55:22.186Z,9.30
2018-02-04T16:57:48.582Z,9.17
2018-02-04T17:00:15.003Z,9.50
2018-02-04T17:02:41.457Z,9.63
2018-02-04T17:05:07.850Z,10.87
2018-02-04T17:07:34.988Z,9.87
2018-02-04T17:10:01.370Z,10.43
2018-02-04T17:12:27.758Z,12.13
2018-02-04T17:14:54.911Z,11.00
2018-02-04T17:17:22.044Z,11.90
2018-02-04T17:19:49.203Z,9.20
2018-02-04T17:22:16.331Z,10.68
2018-02-04T17:24:42.734Z,10.27
2018-02-04T17:27:09.143Z,10.57
2018-02-04T17:29:35.512Z,9.68
2018-02-04T17:32:01.918Z,9.70
2018-02-04T17:34:28.408Z,11.50
2018-02-04T17:36:55.554Z,10.67
2018-02-04T17:39:22.004Z,11.85
2018-02-04T17:41:49.195Z,12.37
2018-02-04T17:44:15.630Z,12.65
2018-02-04T17:46:42.038Z,11.48
2018-02-04T17:49:21.973Z,12.00
2018-02-04T17:51:49.183Z,11.75
2018-02-04T17:54:29.118Z,20.70
2018-02-04T17:56:55.558Z,12.80
2018-02-04T17:59:22.047Z,10.95
2018-02-04T18:01:48.483Z,11.32
2018-02-04T18:04:14.957Z,11.18
2018-02-04T18:06:41.321Z,12.10
2018-02-04T18:09:07.712Z,10.43
2018-02-04T18:11:34.096Z,13.77
2018-02-04T18:14:01.267Z,12.68
2018-02-04T18:16:27.667Z,17.45
2018-02-04T18:18:54.063Z,22.55
2018-02-04T18:21:20.487Z,22.45
2018-02-04T18:23:46.924Z,20.83
2018-02-04T18:26:13.330Z,18.37
2018-02-04T18:28:39.802Z,39.53
2018-02-04T18:31:06.179Z,30.25
2018-02-04T18:33:33.346Z,21.12
2018-02-04T18:35:59.733Z,48.00
2018-02-04T18:38:26.174Z,34.63
2018-02-04T18:40:52.629Z,34.35
2018-02-04T18:43:19.027Z,35.25
2018-02-04T18:45:45.406Z,27.35
2018-02-04T18:48:12.561Z,19.35
2018-02-04T18:50:39.014Z,22.87
2018-02-04T18:53:05.426Z,24.25
2018-02-04T18:55:31.811Z,21.58
2018-02-04T18:57:59.687Z,13.70
2018-02-04T19:00:26.107Z,11.50
2018-02-04T19:02:53.237Z,13.77
2018-02-04T19:05:19.635Z,15.52
2018-02-04T19:07:46.056Z,15.10
2018-02-04T19:10:13.178Z,14.52
2018-02-04T19:12:39.558Z,57.72
2018-02-04T19:15:06.034Z,51.20
2018-02-04T19:17:32.417Z,27.80
2018-02-04T19:19:59.638Z,42.15
2018-02-04T19:22:26.842Z,45.12
2018-02-04T19:24:53.214Z,42.70
2018-02-04T19:27:19.673Z,27.87
2018-02-04T19:29:46.056Z,19.98
2018-02-04T19:32:12.490Z,21.58
2018-02-04T19:34:38.896Z,22.30
2018-02-04T19:37:05.887Z,23.05
2018-02-04T19:39:32.268Z,19.25
2018-02-04T19:41:58.676Z,12.80
2018-02-04T19:44:27.057Z,14.18
2018-02-04T19:46:55.071Z,20.85
2018-02-04T19:49:21.483Z,19.52
2018-02-04T19:51:47.935Z,18.05
2018-02-04T19:54:14.437Z,20.52
2018-02-04T19:56:40.829Z,16.65
2018-02-04T19:59:07.222Z,16.65
2018-02-04T20:01:33.781Z,16.62
2018-02-04T20:04:01.674Z,18.85
2018-02-04T20:06:28.057Z,18.17
2018-02-04T20:08:54.447Z,17.87
2018-02-04T20:11:21.586Z,16.60
2018-02-04T20:13:47.963Z,16.33
2018-02-04T20:16:14.346Z,13.40
2018-02-04T20:18:40.783Z,14.75
2018-02-04T20:21:07.780Z,19.17
2018-02-04T20:23:34.265Z,19.60
2018-02-04T20:26:01.409Z,18.85
2018-02-04T20:28:28.551Z,14.93
2018-02-04T20:30:54.964Z,18.95
2018-02-04T20:33:21.404Z,14.35
2018-02-04T20:35:47.806Z,13.55
2018-02-04T20:38:14.274Z,18.87
2018-02-04T20:40:40.674Z,14.15
2018-02-04T20:43:07.055Z,13.43
2018-02-04T20:45:33.430Z,14.35
2018-02-04T20:47:59.844Z,13.10
2018-02-04T20:50:26.255Z,15.48
2018-02-04T20:52:53.397Z,15.45
2018-02-04T20:55:20.583Z,16.42
2018-02-04T20:57:46.983Z,15.27
2018-02-04T21:00:13.469Z,15.68
2018-02-04T21:02:39.879Z,13.70
2018-02-04T21:05:06.290Z,17.30
2018-02-04T21:07:33.403Z,32.75
2018-02-04T21:09:59.790Z,30.90
2018-02-04T21:12:26.187Z,25.77
2018-02-04T21:14:52.566Z,23.30
2018-02-04T21:17:18.959Z,20.10
2018-02-04T21:19:46.091Z,18.75
2018-02-04T21:22:12.503Z,21.12
2018-02-04T21:24:38.913Z,20.83
2018-02-04T21:27:05.296Z,28.85
2018-02-04T21:29:32.442Z,20.02
2018-02-04T21:31:58.838Z,18.12
2018-02-04T21:34:25.227Z,22.40
2018-02-04T21:36:51.653Z,19.00
2018-02-04T21:39:18.775Z,18.10
2018-02-04T21:41:45.138Z,17.08
2018-02-04T21:44:12.243Z,17.00
2018-02-04T21:46:38.609Z,15.20
2018-02-04T21:49:05.011Z,15.95
2018-02-04T21:51:31.422Z,17.42
2018-02-04T21:53:57.822Z,18.90
2018-02-04T21:56:24.385Z,17.50
2018-02-04T21:58:50.759Z,18.15
2018-02-04T22:01:17.144Z,16.70
2018-02-04T22:03:43.502Z,17.60
2018-02-04T22:06:09.865Z,15.82
2018-02-04T22:08:36.242Z,18.40
2018-02-04T22:11:02.621Z,18.73
2018-02-04T22:13:28.994Z,27.75
2018-02-04T22:15:55.378Z,24.25
2018-02-04T22:18:21.757Z,22.98
2018-02-04T22:20:48.142Z,24.95
2018-02-04T22:23:14.531Z,19.80
2018-02-04T22:25:40.919Z,18.20
2018-02-04T22:28:07.307Z,19.52
2018-02-04T22:30:33.708Z,18.98
2018-02-04T22:33:00.081Z,17.17
2018-02-04T22:35:26.462Z,20.85
2018-02-04T22:37:53.599Z,19.48
2018-02-04T22:40:20.747Z,20.27
2018-02-04T22:42:47.869Z,21.12
2018-02-04T22:45:14.251Z,19.83
2018-02-04T22:47:40.642Z,18.25
2018-02-04T22:50:07.037Z,16.75
2018-02-04T22:52:33.435Z,15.65
2018-02-04T22:55:00.581Z,17.80
2018-02-04T22:57:27.782Z,15.50
2018-02-04T22:59:54.245Z,17.05
2018-02-04T23:02:20.615Z,16.55
2018-02-04T23:04:47.739Z,17.12
2018-02-04T23:07:14.906Z,15.93
2018-02-04T23:09:41.325Z,15.30
2018-02-04T23:12:08.508Z,15.07
2018-02-04T23:14:34.870Z,17.60
2018-02-04T23:17:01.259Z,16.58
2018-02-04T23:19:28.386Z,19.45
2018-02-04T23:21:55.558Z,18.23
2018-02-04T23:24:22.702Z,18.90
2018-02-04T23:26:49.821Z,18.55
2018-02-04T23:29:16.198Z,17.23
2018-02-04T23:31:42.582Z,17.23
2018-02-04T23:34:08.955Z,17.80
2018-02-04T23:36:35.327Z,18.37
2018-02-04T23:39:01.695Z,20.35
2018-02-04T23:41:28.075Z,19.92
2018-02-04T23:43:54.452Z,17.10
2018-02-04T23:46:21.598Z,16.70
2018-02-04T23:48:47.975Z,17.60
2018-02-04T23:51:14.365Z,17.37
2018-02-04T23:53:40.740Z,16.58
2018-02-04T23:56:07.099Z,16.80
2018-02-04T23:58:33.578Z,15.82
